sensor_id;sensor_type;location;lat;lon;timestamp;pressure;altitude;pressure_sealevel;temperature;humidity
58072;BME280;60383;46.626;18.866;2023-05-02T00:00:09;100404.69;;;13.68;66.44
58072;BME280;60383;46.626;18.866;2023-05-02T00:02:35;100397.06;;;13.79;65.03
58072;BME280;60383;46.626;18.866;2023-05-02T00:05:01;100403.22;;;13.89;63.93
58072;BME280;60383;46.626;18.866;2023-05-02T00:07:26;100399.00;;;13.70;64.80
58072;BME280;60383;46.626;18.866;2023-05-02T00:09:52;100393.25;;;13.80;65.79
58072;BME280;60383;46.626;18.866;2023-05-02T00:12:17;100394.25;;;13.87;65.10
58072;BME280;60383;46.626;18.866;2023-05-02T00:14:43;100395.31;;;13.78;66.56
58072;BME280;60383;46.626;18.866;2023-05-02T00:17:15;100394.53;;;13.69;66.09
58072;BME280;60383;46.626;18.866;2023-05-02T00:19:41;100396.31;;;13.85;65.84
58072;BME280;60383;46.626;18.866;2023-05-02T00:22:06;100393.50;;;13.70;66.47
58072;BME280;60383;46.626;18.866;2023-05-02T00:24:32;100393.81;;;13.67;67.46
58072;BME280;60383;46.626;18.866;2023-05-02T00:26:58;100386.94;;;13.71;67.06
58072;BME280;60383;46.626;18.866;2023-05-02T00:29:24;100385.22;;;13.70;66.02
58072;BME280;60383;46.626;18.866;2023-05-02T00:31:50;100383.47;;;13.77;66.20
58072;BME280;60383;46.626;18.866;2023-05-02T00:34:15;100390.53;;;13.71;66.10
58072;BME280;60383;46.626;18.866;2023-05-02T00:36:41;100387.25;;;13.76;65.93
58072;BME280;60383;46.626;18.866;2023-05-02T00:39:06;100389.91;;;13.61;66.19
58072;BME280;60383;46.626;18.866;2023-05-02T00:41:31;100384.00;;;13.72;66.33
58072;BME280;60383;46.626;18.866;2023-05-02T00:43:57;100380.56;;;13.70;66.26
58072;BME280;60383;46.626;18.866;2023-05-02T00:46:23;100380.41;;;13.72;65.70
58072;BME280;60383;46.626;18.866;2023-05-02T00:48:49;100384.19;;;13.71;65.30
58072;BME280;60383;46.626;18.866;2023-05-02T00:51:14;100379.72;;;13.70;64.33
58072;BME280;60383;46.626;18.866;2023-05-02T00:53:40;100391.06;;;13.67;66.75
58072;BME280;60383;46.626;18.866;2023-05-02T00:56:07;100383.31;;;13.70;66.81
58072;BME280;60383;46.626;18.866;2023-05-02T00:58:33;100385.22;;;13.70;65.31
58072;BME280;60383;46.626;18.866;2023-05-02T01:11:52;100385.97;;;13.55;66.06
58072;BME280;60383;46.626;18.866;2023-05-02T01:14:21;100379.44;;;13.56;65.66
58072;BME280;60383;46.626;18.866;2023-05-02T01:16:49;100379.25;;;13.58;66.37
58072;BME280;60383;46.626;18.866;2023-05-02T01:19:31;100383.41;;;13.54;65.36
58072;BME280;60383;46.626;18.866;2023-05-02T01:22:00;100379.97;;;13.52;65.47
58072;BME280;60383;46.626;18.866;2023-05-02T01:24:33;100385.50;;;13.44;66.04
58072;BME280;60383;46.626;18.866;2023-05-02T01:27:14;100384.34;;;13.38;67.35
58072;BME280;60383;46.626;18.866;2023-05-02T01:29:41;100378.31;;;13.26;68.26
58072;BME280;60383;46.626;18.866;2023-05-02T01:32:08;100378.63;;;13.31;67.15
58072;BME280;60383;46.626;18.866;2023-05-02T01:34:37;100384.50;;;13.28;68.15
58072;BME280;60383;46.626;18.866;2023-05-02T01:37:05;100384.13;;;13.31;67.49
58072;BME280;60383;46.626;18.866;2023-05-02T01:39:32;100383.81;;;13.26;67.02
58072;BME280;60383;46.626;18.866;2023-05-02T01:42:00;100377.81;;;13.22;67.17
58072;BME280;60383;46.626;18.866;2023-05-02T01:44:29;100377.13;;;13.20;68.25
58072;BME280;60383;46.626;18.866;2023-05-02T01:46:55;100379.34;;;13.17;69.40
58072;BME280;60383;46.626;18.866;2023-05-02T01:49:23;100376.28;;;13.20;68.39
58072;BME280;60383;46.626;18.866;2023-05-02T01:51:49;100377.63;;;13.24;68.32
58072;BME280;60383;46.626;18.866;2023-05-02T01:54:17;100372.13;;;13.24;69.21
58072;BME280;60383;46.626;18.866;2023-05-02T01:56:44;100367.84;;;13.21;69.25
58072;BME280;60383;46.626;18.866;2023-05-02T01:59:13;100370.25;;;13.16;69.42
58072;BME280;60383;46.626;18.866;2023-05-02T02:01:39;100372.91;;;12.93;70.15
58072;BME280;60383;46.626;18.866;2023-05-02T02:04:08;100372.69;;;13.03;70.80
58072;BME280;60383;46.626;18.866;2023-05-02T02:06:35;100369.44;;;12.99;68.96
58072;BME280;60383;46.626;18.866;2023-05-02T02:09:01;100375.28;;;12.96;68.68
58072;BME280;60383;46.626;18.866;2023-05-02T02:11:36;100368.44;;;12.84;68.70
58072;BME280;60383;46.626;18.866;2023-05-02T02:14:16;100365.63;;;13.08;67.79
58072;BME280;60383;46.626;18.866;2023-05-02T02:16:43;100362.53;;;13.03;67.42
58072;BME280;60383;46.626;18.866;2023-05-02T02:19:12;100363.25;;;13.05;68.12
58072;BME280;60383;46.626;18.866;2023-05-02T02:21:39;100360.63;;;13.12;67.16
58072;BME280;60383;46.626;18.866;2023-05-02T02:24:07;100354.97;;;13.14;67.20
58072;BME280;60383;46.626;18.866;2023-05-02T02:26:34;100352.25;;;13.05;68.48
58072;BME280;60383;46.626;18.866;2023-05-02T02:29:00;100347.09;;;13.02;68.44
58072;BME280;60383;46.626;18.866;2023-05-02T02:31:33;100345.38;;;13.01;68.89
58072;BME280;60383;46.626;18.866;2023-05-02T02:34:00;100345.72;;;12.98;68.87
58072;BME280;60383;46.626;18.866;2023-05-02T02:44:53;100335.97;;;12.87;70.58
58072;BME280;60383;46.626;18.866;2023-05-02T02:47:22;100341.47;;;12.87;69.92
58072;BME280;60383;46.626;18.866;2023-05-02T02:49:53;100343.69;;;12.84;69.34
58072;BME280;60383;46.626;18.866;2023-05-02T02:55:28;100342.34;;;12.71;69.01
58072;BME280;60383;46.626;18.866;2023-05-02T02:58:25;100340.63;;;12.78;68.63
58072;BME280;60383;46.626;18.866;2023-05-02T03:00:53;100346.25;;;12.77;69.08
58072;BME280;60383;46.626;18.866;2023-05-02T03:03:21;100345.59;;;12.75;69.34
58072;BME280;60383;46.626;18.866;2023-05-02T03:05:54;100349.38;;;12.74;69.49
58072;BME280;60383;46.626;18.866;2023-05-02T03:08:21;100355.72;;;12.74;69.98
58072;BME280;60383;46.626;18.866;2023-05-02T03:10:46;100356.25;;;12.70;70.26
58072;BME280;60383;46.626;18.866;2023-05-02T03:13:12;100359.34;;;12.67;71.15
58072;BME280;60383;46.626;18.866;2023-05-02T03:18:18;100351.28;;;12.49;72.59
58072;BME280;60383;46.626;18.866;2023-05-02T03:20:44;100357.28;;;12.52;73.27
58072;BME280;60383;46.626;18.866;2023-05-02T03:23:09;100350.59;;;12.38;73.69
58072;BME280;60383;46.626;18.866;2023-05-02T03:25:35;100353.69;;;12.43;73.36
58072;BME280;60383;46.626;18.866;2023-05-02T03:28:01;100356.09;;;12.38;74.94
58072;BME280;60383;46.626;18.866;2023-05-02T03:30:27;100357.13;;;12.45;75.20
58072;BME280;60383;46.626;18.866;2023-05-02T03:32:52;100357.13;;;12.29;73.74
58072;BME280;60383;46.626;18.866;2023-05-02T03:35:18;100361.91;;;12.27;75.41
58072;BME280;60383;46.626;18.866;2023-05-02T03:37:44;100363.13;;;12.41;73.46
58072;BME280;60383;46.626;18.866;2023-05-02T03:40:09;100365.69;;;12.34;73.10
58072;BME280;60383;46.626;18.866;2023-05-02T03:42:35;100363.81;;;12.35;73.14
58072;BME280;60383;46.626;18.866;2023-05-02T03:45:07;100365.38;;;12.37;73.06
58072;BME280;60383;46.626;18.866;2023-05-02T03:47:33;100369.97;;;12.37;72.75
58072;BME280;60383;46.626;18.866;2023-05-02T03:49:58;100367.41;;;12.35;72.51
58072;BME280;60383;46.626;18.866;2023-05-02T03:52:25;100372.56;;;12.46;72.01
58072;BME280;60383;46.626;18.866;2023-05-02T03:54:50;100381.84;;;12.45;72.48
58072;BME280;60383;46.626;18.866;2023-05-02T03:57:16;100375.31;;;12.46;71.85
58072;BME280;60383;46.626;18.866;2023-05-02T03:59:42;100378.94;;;12.55;71.34
58072;BME280;60383;46.626;18.866;2023-05-02T04:02:10;100376.00;;;12.57;71.59
58072;BME280;60383;46.626;18.866;2023-05-02T04:04:36;100365.19;;;12.55;71.26
58072;BME280;60383;46.626;18.866;2023-05-02T04:07:01;100379.59;;;12.57;71.21
58072;BME280;60383;46.626;18.866;2023-05-02T04:09:27;100378.56;;;12.67;70.90
58072;BME280;60383;46.626;18.866;2023-05-02T04:11:53;100383.91;;;12.76;70.46
58072;BME280;60383;46.626;18.866;2023-05-02T04:14:18;100377.38;;;12.86;70.56
58072;BME280;60383;46.626;18.866;2023-05-02T04:16:50;100378.72;;;12.90;70.19
58072;BME280;60383;46.626;18.866;2023-05-02T04:19:17;100382.34;;;12.90;71.17
58072;BME280;60383;46.626;18.866;2023-05-02T04:21:43;100383.72;;;12.94;70.96
58072;BME280;60383;46.626;18.866;2023-05-02T04:24:09;100391.06;;;12.94;70.96
58072;BME280;60383;46.626;18.866;2023-05-02T04:26:35;100393.31;;;13.07;71.41
58072;BME280;60383;46.626;18.866;2023-05-02T04:29:01;100400.34;;;13.01;72.82
58072;BME280;60383;46.626;18.866;2023-05-02T04:31:26;100398.59;;;13.17;71.46
58072;BME280;60383;46.626;18.866;2023-05-02T04:33:52;100394.00;;;13.09;71.47
58072;BME280;60383;46.626;18.866;2023-05-02T04:36:17;100402.94;;;13.03;72.00
58072;BME280;60383;46.626;18.866;2023-05-02T04:38:46;100406.53;;;13.12;72.18
58072;BME280;60383;46.626;18.866;2023-05-02T04:41:11;100403.41;;;13.23;72.41
58072;BME280;60383;46.626;18.866;2023-05-02T04:43:37;100407.53;;;13.27;71.01
58072;BME280;60383;46.626;18.866;2023-05-02T04:46:02;100408.91;;;13.23;71.31
58072;BME280;60383;46.626;18.866;2023-05-02T04:48:28;100411.13;;;13.36;71.54
58072;BME280;60383;46.626;18.866;2023-05-02T04:50:54;100409.53;;;13.50;70.76
58072;BME280;60383;46.626;18.866;2023-05-02T04:53:21;100408.84;;;13.56;70.72
58072;BME280;60383;46.626;18.866;2023-05-02T04:55:46;100404.53;;;13.62;70.60
58072;BME280;60383;46.626;18.866;2023-05-02T04:58:12;100416.44;;;13.54;70.42
58072;BME280;60383;46.626;18.866;2023-05-02T05:00:37;100422.78;;;13.54;69.55
58072;BME280;60383;46.626;18.866;2023-05-02T05:03:03;100419.00;;;13.55;69.10
58072;BME280;60383;46.626;18.866;2023-05-02T05:05:30;100413.81;;;13.52;68.92
58072;BME280;60383;46.626;18.866;2023-05-02T05:07:56;100422.63;;;13.48;68.82
58072;BME280;60383;46.626;18.866;2023-05-02T05:10:21;100410.25;;;13.44;69.06
58072;BME280;60383;46.626;18.866;2023-05-02T05:12:47;100419.88;;;13.48;68.52
58072;BME280;60383;46.626;18.866;2023-05-02T05:15:14;100413.50;;;13.47;68.12
58072;BME280;60383;46.626;18.866;2023-05-02T05:17:39;100419.81;;;13.64;67.61
58072;BME280;60383;46.626;18.866;2023-05-02T05:20:06;100420.50;;;13.66;67.38
58072;BME280;60383;46.626;18.866;2023-05-02T05:22:40;100428.72;;;13.74;67.11
58072;BME280;60383;46.626;18.866;2023-05-02T05:25:09;100424.31;;;13.97;65.46
58072;BME280;60383;46.626;18.866;2023-05-02T05:27:35;100426.31;;;14.11;65.50
58072;BME280;60383;46.626;18.866;2023-05-02T05:30:01;100429.13;;;14.26;65.45
58072;BME280;60383;46.626;18.866;2023-05-02T05:32:28;100423.47;;;14.51;64.22
58072;BME280;60383;46.626;18.866;2023-05-02T05:34:53;100433.09;;;14.55;63.80
58072;BME280;60383;46.626;18.866;2023-05-02T05:37:20;100430.53;;;14.77;63.17
58072;BME280;60383;46.626;18.866;2023-05-02T05:39:46;100423.72;;;14.64;63.08
58072;BME280;60383;46.626;18.866;2023-05-02T05:42:11;100423.25;;;14.84;62.53
58072;BME280;60383;46.626;18.866;2023-05-02T05:44:37;100428.25;;;15.04;61.66
58072;BME280;60383;46.626;18.866;2023-05-02T05:47:03;100434.91;;;15.09;61.73
58072;BME280;60383;46.626;18.866;2023-05-02T05:49:28;100433.91;;;15.25;61.21
58072;BME280;60383;46.626;18.866;2023-05-02T05:51:54;100437.13;;;15.29;61.24
58072;BME280;60383;46.626;18.866;2023-05-02T05:54:19;100428.50;;;15.47;61.30
58072;BME280;60383;46.626;18.866;2023-05-02T05:56:45;100434.50;;;15.65;60.13
58072;BME280;60383;46.626;18.866;2023-05-02T05:59:11;100435.91;;;15.76;60.18
58072;BME280;60383;46.626;18.866;2023-05-02T06:01:36;100444.19;;;15.91;59.82
58072;BME280;60383;46.626;18.866;2023-05-02T06:04:02;100436.66;;;16.15;59.49
58072;BME280;60383;46.626;18.866;2023-05-02T06:06:29;100438.91;;;16.26;59.15
58072;BME280;60383;46.626;18.866;2023-05-02T06:08:56;100446.28;;;16.41;58.79
58072;BME280;60383;46.626;18.866;2023-05-02T06:11:21;100448.22;;;16.62;59.41
58072;BME280;60383;46.626;18.866;2023-05-02T06:13:50;100446.78;;;16.66;59.08
58072;BME280;60383;46.626;18.866;2023-05-02T06:16:15;100444.59;;;16.83;58.71
58072;BME280;60383;46.626;18.866;2023-05-02T06:18:42;100446.72;;;17.03;57.47
58072;BME280;60383;46.626;18.866;2023-05-02T06:21:08;100450.06;;;17.20;56.50
58072;BME280;60383;46.626;18.866;2023-05-02T06:23:34;100441.84;;;17.33;55.69
58072;BME280;60383;46.626;18.866;2023-05-02T06:26:00;100454.03;;;17.39;55.23
58072;BME280;60383;46.626;18.866;2023-05-02T06:28:27;100449.69;;;17.30;55.17
58072;BME280;60383;46.626;18.866;2023-05-02T06:31:04;100459.25;;;17.55;54.92
58072;BME280;60383;46.626;18.866;2023-05-02T06:33:30;100459.16;;;17.70;54.20
58072;BME280;60383;46.626;18.866;2023-05-02T06:35:57;100455.84;;;17.53;55.60
58072;BME280;60383;46.626;18.866;2023-05-02T06:38:22;100454.25;;;17.72;54.65
58072;BME280;60383;46.626;18.866;2023-05-02T06:40:48;100450.38;;;17.67;54.84
58072;BME280;60383;46.626;18.866;2023-05-02T06:43:14;100453.63;;;17.42;55.00
58072;BME280;60383;46.626;18.866;2023-05-02T06:45:40;100452.44;;;17.93;53.16
58072;BME280;60383;46.626;18.866;2023-05-02T06:48:07;100444.50;;;17.83;53.10
58072;BME280;60383;46.626;18.866;2023-05-02T06:50:33;100447.66;;;17.73;55.37
58072;BME280;60383;46.626;18.866;2023-05-02T06:52:59;100454.31;;;17.51;55.29
58072;BME280;60383;46.626;18.866;2023-05-02T06:55:24;100437.50;;;17.87;54.74
58072;BME280;60383;46.626;18.866;2023-05-02T06:57:50;100446.16;;;18.13;55.20
58072;BME280;60383;46.626;18.866;2023-05-02T07:00:17;100438.03;;;18.04;51.24
58072;BME280;60383;46.626;18.866;2023-05-02T07:02:46;100443.63;;;18.18;51.16
58072;BME280;60383;46.626;18.866;2023-05-02T07:05:12;100441.72;;;18.18;51.50
58072;BME280;60383;46.626;18.866;2023-05-02T07:07:42;100452.28;;;17.95;51.72
58072;BME280;60383;46.626;18.866;2023-05-02T07:10:08;100453.38;;;18.69;50.01
58072;BME280;60383;46.626;18.866;2023-05-02T07:12:34;100441.81;;;18.59;49.49
58072;BME280;60383;46.626;18.866;2023-05-02T07:14:59;100440.09;;;18.51;47.29
58072;BME280;60383;46.626;18.866;2023-05-02T07:17:25;100451.00;;;18.59;48.10
58072;BME280;60383;46.626;18.866;2023-05-02T07:19:52;100448.69;;;18.63;47.72
58072;BME280;60383;46.626;18.866;2023-05-02T07:22:17;100437.88;;;18.26;48.91
58072;BME280;60383;46.626;18.866;2023-05-02T07:24:43;100444.75;;;18.37;49.69
58072;BME280;60383;46.626;18.866;2023-05-02T07:27:09;100439.28;;;18.71;47.62
58072;BME280;60383;46.626;18.866;2023-05-02T07:29:35;100442.81;;;18.24;47.94
58072;BME280;60383;46.626;18.866;2023-05-02T07:32:01;100446.03;;;18.34;48.51
58072;BME280;60383;46.626;18.866;2023-05-02T07:34:27;100449.50;;;18.57;48.28
58072;BME280;60383;46.626;18.866;2023-05-02T07:36:52;100443.19;;;19.03;49.42
58072;BME280;60383;46.626;18.866;2023-05-02T07:39:18;100451.31;;;19.05;49.19
58072;BME280;60383;46.626;18.866;2023-05-02T07:41:44;100455.97;;;18.77;47.64
58072;BME280;60383;46.626;18.866;2023-05-02T07:44:10;100449.59;;;19.17;46.31
58072;BME280;60383;46.626;18.866;2023-05-02T07:46:35;100449.56;;;18.83;47.51
58072;BME280;60383;46.626;18.866;2023-05-02T07:49:01;100450.22;;;19.12;47.47
58072;BME280;60383;46.626;18.866;2023-05-02T07:51:26;100434.84;;;19.37;48.36
58072;BME280;60383;46.626;18.866;2023-05-02T07:53:52;100444.19;;;19.69;48.52
58072;BME280;60383;46.626;18.866;2023-05-02T07:56:20;100441.38;;;19.83;46.90
58072;BME280;60383;46.626;18.866;2023-05-02T07:58:45;100440.69;;;20.01;45.24
58072;BME280;60383;46.626;18.866;2023-05-02T08:01:10;100445.97;;;19.17;47.01
58072;BME280;60383;46.626;18.866;2023-05-02T08:03:36;100436.25;;;19.93;45.81
58072;BME280;60383;46.626;18.866;2023-05-02T08:06:01;100441.59;;;19.74;45.31
58072;BME280;60383;46.626;18.866;2023-05-02T08:08:28;100438.00;;;19.54;44.93
58072;BME280;60383;46.626;18.866;2023-05-02T08:10:53;100435.69;;;20.23;45.57
58072;BME280;60383;46.626;18.866;2023-05-02T08:13:19;100425.59;;;20.35;43.63
58072;BME280;60383;46.626;18.866;2023-05-02T08:15:44;100447.75;;;20.03;44.86
58072;BME280;60383;46.626;18.866;2023-05-02T08:18:10;100446.13;;;19.69;44.51
58072;BME280;60383;46.626;18.866;2023-05-02T08:20:36;100444.78;;;19.98;43.38
58072;BME280;60383;46.626;18.866;2023-05-02T08:23:01;100436.31;;;20.25;43.64
58072;BME280;60383;46.626;18.866;2023-05-02T08:25:27;100443.28;;;20.41;43.73
58072;BME280;60383;46.626;18.866;2023-05-02T08:27:52;100435.09;;;20.53;43.72
58072;BME280;60383;46.626;18.866;2023-05-02T08:30:18;100443.69;;;20.45;43.29
58072;BME280;60383;46.626;18.866;2023-05-02T08:32:44;100446.66;;;20.50;44.71
58072;BME280;60383;46.626;18.866;2023-05-02T08:35:10;100432.88;;;20.68;43.16
58072;BME280;60383;46.626;18.866;2023-05-02T08:37:36;100442.59;;;20.52;43.48
58072;BME280;60383;46.626;18.866;2023-05-02T08:40:02;100436.94;;;20.72;43.29
58072;BME280;60383;46.626;18.866;2023-05-02T08:42:28;100429.44;;;20.98;42.78
58072;BME280;60383;46.626;18.866;2023-05-02T08:44:57;100432.91;;;20.62;42.18
58072;BME280;60383;46.626;18.866;2023-05-02T08:47:24;100452.09;;;20.77;43.87
58072;BME280;60383;46.626;18.866;2023-05-02T08:49:50;100425.03;;;20.13;42.50
58072;BME280;60383;46.626;18.866;2023-05-02T08:52:18;100439.91;;;20.32;43.77
58072;BME280;60383;46.626;18.866;2023-05-02T08:54:44;100432.50;;;20.58;43.34
58072;BME280;60383;46.626;18.866;2023-05-02T08:57:10;100433.16;;;20.92;42.49
58072;BME280;60383;46.626;18.866;2023-05-02T08:59:36;100432.41;;;20.71;44.36
58072;BME280;60383;46.626;18.866;2023-05-02T09:02:12;100429.44;;;20.66;42.82
58072;BME280;60383;46.626;18.866;2023-05-02T09:04:40;100435.94;;;20.53;43.05
58072;BME280;60383;46.626;18.866;2023-05-02T09:07:07;100436.50;;;20.69;43.31
58072;BME280;60383;46.626;18.866;2023-05-02T09:09:33;100435.13;;;20.85;43.26
58072;BME280;60383;46.626;18.866;2023-05-02T09:11:58;100435.50;;;21.20;43.22
58072;BME280;60383;46.626;18.866;2023-05-02T09:14:24;100425.34;;;21.01;41.42
58072;BME280;60383;46.626;18.866;2023-05-02T09:16:49;100436.28;;;21.02;42.58
58072;BME280;60383;46.626;18.866;2023-05-02T09:19:23;100425.22;;;21.39;40.88
58072;BME280;60383;46.626;18.866;2023-05-02T09:21:50;100435.88;;;20.99;41.38
58072;BME280;60383;46.626;18.866;2023-05-02T09:24:18;100420.97;;;21.37;42.75
58072;BME280;60383;46.626;18.866;2023-05-02T09:27:04;100428.94;;;21.33;42.74
58072;BME280;60383;46.626;18.866;2023-05-02T09:29:31;100430.72;;;21.02;42.34
58072;BME280;60383;46.626;18.866;2023-05-02T09:32:03;100434.69;;;21.13;42.06
58072;BME280;60383;46.626;18.866;2023-05-02T09:34:29;100445.94;;;21.00;41.75
58072;BME280;60383;46.626;18.866;2023-05-02T09:36:57;100420.53;;;21.40;42.67
58072;BME280;60383;46.626;18.866;2023-05-02T09:39:25;100420.66;;;21.27;43.68
58072;BME280;60383;46.626;18.866;2023-05-02T09:41:53;100428.00;;;21.65;40.91
58072;BME280;60383;46.626;18.866;2023-05-02T09:44:26;100421.84;;;21.81;40.04
58072;BME280;60383;46.626;18.866;2023-05-02T09:47:00;100429.16;;;21.94;41.14
58072;BME280;60383;46.626;18.866;2023-05-02T09:49:43;100427.38;;;22.18;39.96
58072;BME280;60383;46.626;18.866;2023-05-02T09:52:15;100429.59;;;22.28;39.13
58072;BME280;60383;46.626;18.866;2023-05-02T09:54:41;100416.03;;;21.83;40.13
58072;BME280;60383;46.626;18.866;2023-05-02T09:57:07;100414.34;;;22.31;37.71
58072;BME280;60383;46.626;18.866;2023-05-02T09:59:34;100410.97;;;21.92;39.46
58072;BME280;60383;46.626;18.866;2023-05-02T10:02:04;100421.22;;;21.79;39.80
58072;BME280;60383;46.626;18.866;2023-05-02T10:04:32;100423.59;;;21.06;40.60
58072;BME280;60383;46.626;18.866;2023-05-02T10:06:58;100413.78;;;21.29;40.80
58072;BME280;60383;46.626;18.866;2023-05-02T10:09:25;100421.75;;;21.69;39.39
58072;BME280;60383;46.626;18.866;2023-05-02T10:11:53;100411.00;;;21.73;40.63
58072;BME280;60383;46.626;18.866;2023-05-02T10:14:20;100413.00;;;21.66;40.10
58072;BME280;60383;46.626;18.866;2023-05-02T10:17:02;100410.84;;;21.86;39.96
58072;BME280;60383;46.626;18.866;2023-05-02T10:19:35;100401.44;;;22.18;41.14
58072;BME280;60383;46.626;18.866;2023-05-02T10:22:02;100404.81;;;21.90;40.87
58072;BME280;60383;46.626;18.866;2023-05-02T10:24:31;100395.88;;;22.48;41.01
58072;BME280;60383;46.626;18.866;2023-05-02T10:26:57;100409.72;;;22.55;41.14
58072;BME280;60383;46.626;18.866;2023-05-02T10:29:23;100406.38;;;22.65;38.68
58072;BME280;60383;46.626;18.866;2023-05-02T10:31:49;100403.78;;;21.84;39.68
58072;BME280;60383;46.626;18.866;2023-05-02T10:34:17;100406.53;;;22.21;42.23
58072;BME280;60383;46.626;18.866;2023-05-02T10:36:43;100406.34;;;22.53;38.70
58072;BME280;60383;46.626;18.866;2023-05-02T10:39:08;100400.97;;;22.82;38.93
58072;BME280;60383;46.626;18.866;2023-05-02T10:41:35;100410.47;;;22.62;38.48
58072;BME280;60383;46.626;18.866;2023-05-02T10:44:03;100417.19;;;21.94;39.77
58072;BME280;60383;46.626;18.866;2023-05-02T10:46:36;100416.59;;;22.22;38.85
58072;BME280;60383;46.626;18.866;2023-05-02T10:49:12;100405.03;;;22.07;39.68
58072;BME280;60383;46.626;18.866;2023-05-02T10:51:41;100405.03;;;21.69;39.72
58072;BME280;60383;46.626;18.866;2023-05-02T11:01:57;100399.38;;;22.44;39.74
58072;BME280;60383;46.626;18.866;2023-05-02T11:04:23;100410.69;;;22.30;40.46
58072;BME280;60383;46.626;18.866;2023-05-02T11:11:50;100415.81;;;22.15;38.42
58072;BME280;60383;46.626;18.866;2023-05-02T11:24:49;100399.06;;;22.33;38.85
58072;BME280;60383;46.626;18.866;2023-05-02T11:29:57;100404.50;;;22.47;40.17
58072;BME280;60383;46.626;18.866;2023-05-02T11:32:24;100406.69;;;22.26;40.41
58072;BME280;60383;46.626;18.866;2023-05-02T11:34:51;100403.84;;;22.14;39.64
58072;BME280;60383;46.626;18.866;2023-05-02T11:37:18;100409.16;;;22.16;40.33
58072;BME280;60383;46.626;18.866;2023-05-02T11:39:44;100404.72;;;22.27;41.52
58072;BME280;60383;46.626;18.866;2023-05-02T11:42:32;100413.28;;;22.13;41.72
58072;BME280;60383;46.626;18.866;2023-05-02T11:44:59;100413.66;;;22.17;42.82
58072;BME280;60383;46.626;18.866;2023-05-02T11:47:25;100418.34;;;22.35;41.02
58072;BME280;60383;46.626;18.866;2023-05-02T11:49:54;100420.09;;;21.99;40.67
58072;BME280;60383;46.626;18.866;2023-05-02T11:52:22;100423.31;;;21.65;42.68
58072;BME280;60383;46.626;18.866;2023-05-02T11:54:48;100427.47;;;21.75;42.80
58072;BME280;60383;46.626;18.866;2023-05-02T11:57:14;100420.03;;;22.06;43.15
58072;BME280;60383;46.626;18.866;2023-05-02T12:02:15;100415.44;;;22.11;41.85
58072;BME280;60383;46.626;18.866;2023-05-02T12:04:42;100423.84;;;22.72;40.79
58072;BME280;60383;46.626;18.866;2023-05-02T12:07:08;100424.66;;;22.61;39.95
58072;BME280;60383;46.626;18.866;2023-05-02T12:09:34;100432.59;;;21.09;42.78
58072;BME280;60383;46.626;18.866;2023-05-02T12:12:00;100428.41;;;21.43;43.18
58072;BME280;60383;46.626;18.866;2023-05-02T12:14:29;100419.34;;;21.92;42.56
58072;BME280;60383;46.626;18.866;2023-05-02T12:16:58;100424.84;;;21.98;42.45
58072;BME280;60383;46.626;18.866;2023-05-02T12:19:24;100430.47;;;22.29;41.57
58072;BME280;60383;46.626;18.866;2023-05-02T12:21:50;100426.00;;;21.91;41.68
58072;BME280;60383;46.626;18.866;2023-05-02T12:24:16;100420.03;;;21.68;43.43
58072;BME280;60383;46.626;18.866;2023-05-02T12:26:42;100433.59;;;21.83;41.91
58072;BME280;60383;46.626;18.866;2023-05-02T12:29:07;100422.09;;;21.54;43.54
58072;BME280;60383;46.626;18.866;2023-05-02T12:31:33;100422.75;;;21.94;42.82
58072;BME280;60383;46.626;18.866;2023-05-02T12:33:58;100428.47;;;21.99;42.65
58072;BME280;60383;46.626;18.866;2023-05-02T12:36:26;100436.16;;;21.41;44.45
58072;BME280;60383;46.626;18.866;2023-05-02T12:38:56;100421.91;;;21.49;43.57
58072;BME280;60383;46.626;18.866;2023-05-02T12:41:36;100415.41;;;21.99;42.49
58072;BME280;60383;46.626;18.866;2023-05-02T12:44:03;100423.59;;;21.94;43.04
58072;BME280;60383;46.626;18.866;2023-05-02T12:46:29;100423.06;;;21.85;42.31
58072;BME280;60383;46.626;18.866;2023-05-02T12:51:30;100421.13;;;21.67;43.01
58072;BME280;60383;46.626;18.866;2023-05-02T12:53:57;100427.00;;;21.59;42.92
58072;BME280;60383;46.626;18.866;2023-05-02T12:56:22;100424.63;;;21.81;42.20
58072;BME280;60383;46.626;18.866;2023-05-02T12:58:49;100423.25;;;22.21;43.27
58072;BME280;60383;46.626;18.866;2023-05-02T13:01:15;100424.38;;;22.20;42.56
58072;BME280;60383;46.626;18.866;2023-05-02T13:03:42;100425.97;;;22.28;42.40
58072;BME280;60383;46.626;18.866;2023-05-02T13:06:08;100416.22;;;22.68;41.01
58072;BME280;60383;46.626;18.866;2023-05-02T13:08:34;100418.59;;;22.52;41.71
58072;BME280;60383;46.626;18.866;2023-05-02T13:11:01;100411.28;;;22.51;42.31
58072;BME280;60383;46.626;18.866;2023-05-02T13:13:27;100415.91;;;22.57;41.76
58072;BME280;60383;46.626;18.866;2023-05-02T13:15:54;100408.25;;;22.53;42.00
58072;BME280;60383;46.626;18.866;2023-05-02T13:18:19;100408.53;;;22.63;41.79
58072;BME280;60383;46.626;18.866;2023-05-02T13:20:45;100409.63;;;22.62;41.87
58072;BME280;60383;46.626;18.866;2023-05-02T13:23:10;100413.34;;;22.25;42.68
58072;BME280;60383;46.626;18.866;2023-05-02T13:25:36;100404.34;;;22.42;42.13
58072;BME280;60383;46.626;18.866;2023-05-02T13:28:01;100402.09;;;22.51;41.61
58072;BME280;60383;46.626;18.866;2023-05-02T13:30:26;100397.84;;;22.48;41.76
58072;BME280;60383;46.626;18.866;2023-05-02T13:32:52;100404.78;;;21.71;42.92
58072;BME280;60383;46.626;18.866;2023-05-02T13:35:17;100399.59;;;21.93;43.22